Latest Weather Observations for Flinders Reef

IDQ60801

Issued at 11:05 pm EST Thursday 31 July 2014 (issued every 30 minutes, with the page automatically refreshed every 10 minutes)

About weather observations | Map of weather stations | Latest weather observations for QLD | Other Formats
Station Details ID: 200783 Name: FLINDERS REEF Lat: -17.72 Lon: 148.45 Height: 2.6 m
Data from the previous 72 hours. | See also: Recent months at Flinders Reef
Date/Time
EST
Temp
°C
App
Temp
°C
Dew
Point
Rel
Hum
%
Delta-T
°C
Wind Press
QNH
hPa
Press
MSL
hPa
Rain
since 9 am
mm
Dir
 
Spd
km/h
Gust
km/h
Spd
kts
Gust
kts
31/09:30pm 23.4 - - - - E 19 22 10 12 1017.6 - -
31/09:24pm 23.3 - - - - E 19 - 10 - - 1017.5 -
31/09:00pm 23.3 - - - - E 15 17 8 9 1017.5 - -
31/08:30pm 23.2 - - - - E 19 22 10 12 1017.4 - -
31/08:24pm 23.4 - - - - E 19 - 10 - - 1017.2 -
31/08:00pm 23.4 - - - - E 20 24 11 13 1017.1 - -
31/07:30pm 23.2 - - - - E 19 22 10 12 1016.9 - -
31/07:24pm 23.4 - - - - E 19 - 10 - - 1016.8 -
31/07:00pm 23.3 - - - - ESE 19 20 10 11 1016.7 - -
31/06:30pm 23.3 - - - - E 19 22 10 12 1016.3 - -
31/06:24pm 23.5 - - - - E 17 - 9 - - 1016.2 -
31/06:00pm 23.4 - - - - E 20 24 11 13 1016.1 - -
31/05:30pm 23.5 - - - - E 19 20 10 11 1016.1 - -
31/05:24pm 23.5 - - - - E 19 - 10 - - 1015.9 -
31/05:00pm 23.4 - - - - ESE 17 20 9 11 1015.9 - -
31/04:30pm 23.4 - - - - ESE 20 24 11 13 1015.8 - -
31/04:24pm 23.7 - - - - ESE 19 - 10 - - 1015.7 -
31/04:00pm 23.6 - - - - SSE 17 20 9 11 1015.7 - -
31/03:30pm 23.4 - - - - SSE 19 20 10 11 1015.7 - -
31/03:24pm 23.6 - - - - SE 17 - 9 - - 1015.6 -
31/03:00pm 23.7 - - - - ESE 15 19 8 10 1015.7 - -
31/02:30pm 24.1 - - - - SE 13 19 7 10 1015.7 - -
31/02:24pm 23.9 - - - - SE 15 - 8 - - 1015.7 -
31/02:00pm 24.0 - - - - SE 15 17 8 9 1016.0 - -
31/01:30pm 24.2 - - - - SE 15 17 8 9 1016.3 - -
31/01:24pm 24.4 - - - - SE 15 - 8 - - 1016.3 -
31/01:00pm 23.8 - - - - SE 15 17 8 9 1016.8 - -
31/12:30pm 24.0 - - - - E 17 19 9 10 1017.1 - -
31/12:24pm 23.8 - - - - E 17 - 9 - - 1017.0 -
31/12:00pm 23.6 - - - - ESE 19 20 10 11 1017.4 - -
31/11:30am 23.8 - - - - ESE 19 20 10 11 1017.8 - -
31/11:24am 23.6 - - - - ESE 19 - 10 - - 1017.8 -
31/11:00am 23.6 - - - - ESE 20 24 11 13 1018.1 - -
31/10:30am 24.3 - - - - ESE 19 24 10 13 1018.3 - -
31/10:24am 23.9 - - - - ESE 20 - 11 - - 1018.2 -
31/10:00am 24.4 - - - - E 11 28 6 15 1018.4 - -
31/09:30am 24.6 - - - - E 17 20 9 11 1018.4 - -
31/09:24am 24.6 - - - - E 17 - 9 - - 1018.4 -
31/09:00am 23.9 - - - - E 19 28 10 15 1018.5 - -
31/08:30am 24.3 - - - - E 19 22 10 12 1018.3 - -
31/08:24am 24.6 - - - - E 15 - 8 - - 1018.2 -
31/08:00am 23.6 - - - - E 24 28 13 15 1018.1 - -
 
Date/Time
EST
Temp
°C
App
Temp
°C
Dew
Point
Rel
Hum
%
Delta-T
°C
Wind Press
QNH
hPa
Press
MSL
hPa
Rain
since 9 am
mm
Dir
 
Spd
km/h
Gust
km/h
Spd
kts
Gust
kts
30/10:30pm 23.7 - - - - E 30 33 16 18 1018.7 - -
30/10:24pm 23.6 - - - - E 30 - 16 - - 1018.5 -
30/10:00pm 23.7 - - - - E 30 35 16 19 1018.6 - -
30/09:30pm 23.8 - - - - E 30 33 16 18 1018.8 - -
30/09:24pm 23.7 - - - - E 30 - 16 - - 1018.7 -
30/09:00pm 23.6 - - - - E 30 35 16 19 1018.7 - -
30/08:30pm 23.7 - - - - E 32 37 17 20 1018.5 - -
30/08:24pm 23.7 - - - - E 32 - 17 - - 1018.3 -
30/08:00pm 23.6 - - - - ESE 32 37 17 20 1018.3 - -
30/07:30pm 23.9 - - - - ESE 32 35 17 19 1018.1 - -
30/07:24pm 23.9 - - - - E 30 - 16 - - 1017.9 -
30/07:00pm 23.7 - - - - E 32 35 17 19 1017.7 - -
30/06:30pm 23.9 - - - - E 32 41 17 22 1017.5 - -
30/06:24pm 23.8 - - - - E 32 - 17 - - 1017.3 -
30/06:00pm 23.8 - - - - ESE 32 37 17 20 1017.3 - -
30/05:30pm 23.8 - - - - ESE 32 33 17 18 1017.2 - -
30/05:24pm 23.8 - - - - ESE 30 - 16 - - 1017.1 -
30/05:00pm 23.7 - - - - ESE 28 33 15 18 1017.2 - -
30/04:30pm 23.8 - - - - ESE 30 35 16 19 1017.1 - -
30/04:24pm 23.9 - - - - ESE 32 - 17 - - 1017.0 -
30/04:00pm 23.9 - - - - ESE 30 37 16 20 1017.0 - -
30/03:30pm 23.8 - - - - SE 30 37 16 20 1016.9 - -
30/03:24pm 24.0 - - - - SE 30 - 16 - - 1016.9 -
30/03:00pm 24.1 - - - - ESE 30 35 16 19 1017.0 - -
30/02:30pm 24.0 - - - - ESE 32 35 17 19 1017.1 - -
30/02:24pm 23.8 - - - - ESE 32 - 17 - - 1017.0 -
30/02:00pm 23.6 - - - - E 33 39 18 21 1017.3 - -
30/01:30pm 23.8 - - - - ESE 32 35 17 19 1017.6 - -
30/01:24pm 23.7 - - - - ESE 32 - 17 - - 1017.7 -
30/01:00pm 23.8 - - - - ESE 33 37 18 20 1018.1 - -
30/12:30pm 23.8 - - - - ESE 32 35 17 19 1018.6 - -
30/12:24pm 23.9 - - - - ESE 32 - 17 - - 1018.6 -
30/12:00pm 24.0 - - - - ESE 32 37 17 20 1019.1 - -
30/11:30am 24.0 - - - - ESE 30 35 16 19 1019.5 - -
30/11:24am 24.1 - - - - ESE 30 - 16 - - 1019.5 -
30/11:00am 24.1 - - - - ESE 32 35 17 19 1019.8 - -
30/10:30am 24.0 - - - - ESE 32 35 17 19 1020.1 - -
30/10:24am 24.0 - - - - ESE 32 - 17 - - 1020.0 -
30/10:00am 24.0 - - - - ESE 30 35 16 19 1020.3 - -
30/09:30am 24.2 - - - - ESE 30 35 16 19 1020.4 - -
30/09:24am 24.2 - - - - ESE 32 - 17 - - 1020.3 -
30/09:00am 24.2 - - - - ESE 30 35 16 19 1020.4 - -
30/08:30am 24.1 - - - - ESE 30 33 16 18 1020.3 - -
30/08:24am 24.1 - - - - ESE 30 - 16 - - 1020.2 -
30/08:00am 24.0 - - - - ESE 28 32 15 17 1020.0 - -
 
Date/Time
EST
Temp
°C
App
Temp
°C
Dew
Point
Rel
Hum
%
Delta-T
°C
Wind Press
QNH
hPa
Press
MSL
hPa
Rain
since 9 am
mm
Dir
 
Spd
km/h
Gust
km/h
Spd
kts
Gust
kts
29/10:30pm 23.5 - - - - E 26 30 14 16 1020.0 - -
29/10:24pm 23.5 - - - - E 26 - 14 - - 1019.9 -
29/10:00pm 23.4 - - - - E 28 32 15 17 1020.2 - -
29/09:30pm 23.7 - - - - E 26 32 14 17 1020.1 - -
29/09:24pm 23.6 - - - - E 28 - 15 - - 1019.9 -
29/09:00pm 23.8 - - - - E 28 33 15 18 1019.8 - -
29/08:30pm 23.6 - - - - E 30 33 16 18 1019.4 - -
29/08:24pm 23.7 - - - - E 28 - 15 - - 1019.2 -
29/08:00pm 23.6 - - - - ESE 28 32 15 17 1019.2 - -
29/07:30pm 23.5 - - - - E 30 33 16 18 1018.9 - -
29/07:24pm 23.5 - - - - E 28 - 15 - - 1018.8 -
29/07:00pm 23.9 - - - - E 26 30 14 16 1018.8 - -
29/06:30pm 24.0 - - - - E 26 30 14 16 1018.7 - -
29/06:24pm 23.9 - - - - E 26 - 14 - - 1018.5 -
29/06:00pm 23.6 - - - - E 26 30 14 16 1018.4 - -
29/05:30pm 23.3 - - - - E 26 28 14 15 1018.4 - -
29/05:24pm 23.1 - - - - E 26 - 14 - - 1018.2 -
29/05:00pm 23.1 - - - - E 28 32 15 17 1018.2 - -
29/04:30pm 22.3 - - - - SE 24 32 13 17 1018.1 - -
29/04:24pm 23.2 - - - - SE 20 - 11 - - 1017.9 -
29/04:00pm 23.0 - - - - SE 19 22 10 12 1017.9 - -
29/03:30pm 22.9 - - - - SE 20 26 11 14 1017.9 - -
29/03:24pm 23.0 - - - - SE 20 - 11 - - 1017.8 -
29/03:00pm 22.6 - - - - SE 24 30 13 16 1017.9 - -
29/02:30pm 22.7 - - - - SE 20 28 11 15 1018.1 - -
29/02:24pm 22.7 - - - - SE 22 - 12 - - 1018.1 -
29/02:00pm 22.5 - - - - SE 24 30 13 16 1018.5 - -
29/01:30pm 22.5 - - - - SE 30 33 16 18 1018.8 - -
29/01:24pm 22.6 - - - - SE 32 - 17 - - 1018.7 -
29/01:00pm 22.6 - - - - SE 32 37 17 20 1019.0 - -
29/12:30pm 23.4 - - - - ESE 28 33 15 18 1019.5 - -
29/12:24pm 23.5 - - - - ESE 30 - 16 - - 1019.4 -
29/12:00pm 23.2 - - - - SE 30 37 16 20 1019.8 - -
29/11:30am 23.0 - - - - ESE 33 39 18 21 1020.0 - -
29/11:24am 23.2 - - - - ESE 33 - 18 - - 1020.0 -
29/11:00am 23.4 - - - - ESE 30 35 16 19 1020.2 - -
29/10:30am 23.1 - - - - SE 35 41 19 22 1020.5 - -
29/10:24am 23.4 - - - - SE 33 - 18 - - 1020.4 -
29/10:00am 23.6 - - - - ESE 28 32 15 17 1020.7 - -
29/09:30am 23.7 - - - - ESE 28 32 15 17 1020.8 - -
29/09:24am 23.5 - - - - ESE 28 - 15 - - 1020.7 -
29/09:00am 23.7 - - - - ESE 28 32 15 17 1020.7 - -
29/08:30am 23.7 - - - - ESE 28 35 15 19 1020.5 - -
29/08:24am 23.5 - - - - ESE 28 - 15 - - 1020.3 -
29/08:00am 23.4 - - - - ESE 30 35 16 19 1020.3 - -
29/07:30am 23.3 - - - - ESE 30 37 16 20 1019.9 - -
29/07:24am 23.4 - - - - ESE 30 - 16 - - 1019.8 -
29/01:00am 22.9 - - - - SE 33 37 18 20 1019.2 - -
29/12:30am 23.1 - - - - ESE 32 35 17 19 1019.5 - -
29/12:24am 23.3 - - - - ESE 32 - 17 - - 1019.4 -
29/12:00am 23.2 - - - - SE 32 37 17 20 1019.5 - -
 
Date/Time
EST
Temp
°C
App
Temp
°C
Dew
Point
Rel
Hum
%
Delta-T
°C
Wind Press
QNH
hPa
Press
MSL
hPa
Rain
since 9 am
mm
Dir
 
Spd
km/h
Gust
km/h
Spd
kts
Gust
kts
28/11:30pm 23.2 - - - - ESE 32 37 17 20 1019.5 - -
28/11:24pm 23.1 - - - - ESE 32 - 17 - - 1019.4 -

Other Formats:

Comma delimited format used in spreadsheet applications
http://www.bom.gov.au/fwo/IDQ60801/IDQ60801.94290.axf

JavaScript Object Notation format (JSON) in row-major order
http://www.bom.gov.au/fwo/IDQ60801/IDQ60801.94290.json